sensor_id;sensor_type;location;lat;lon;timestamp;pressure;altitude;pressure_sealevel;temperature;humidity
77739;BME280;66904;59.926;30.404;2023-02-15T00:04:30;102662.56;;;28.79;22.30
77739;BME280;66904;59.926;30.404;2023-02-15T00:10:10;102648.88;;;28.87;22.27
77739;BME280;66904;59.926;30.404;2023-02-15T00:15:12;102640.59;;;28.80;22.30
77739;BME280;66904;59.926;30.404;2023-02-15T00:20:13;102646.22;;;28.79;22.10
77739;BME280;66904;59.926;30.404;2023-02-15T00:25:13;102647.09;;;28.79;22.29
77739;BME280;66904;59.926;30.404;2023-02-15T00:30:14;102637.88;;;28.80;21.84
77739;BME280;66904;59.926;30.404;2023-02-15T00:35:14;102633.25;;;28.81;22.24
77739;BME280;66904;59.926;30.404;2023-02-15T00:40:34;102646.06;;;28.80;22.00
77739;BME280;66904;59.926;30.404;2023-02-15T00:45:34;102631.97;;;28.77;21.84
77739;BME280;66904;59.926;30.404;2023-02-15T00:56:44;102642.56;;;28.86;22.01
77739;BME280;66904;59.926;30.404;2023-02-15T01:01:47;102642.47;;;28.80;22.41
77739;BME280;66904;59.926;30.404;2023-02-15T01:07:06;102650.94;;;28.85;21.76
77739;BME280;66904;59.926;30.404;2023-02-15T01:12:36;102648.88;;;28.87;22.23
77739;BME280;66904;59.926;30.404;2023-02-15T01:29:17;102639.56;;;28.81;22.33
77739;BME280;66904;59.926;30.404;2023-02-15T01:34:18;102623.88;;;28.83;21.95
77739;BME280;66904;59.926;30.404;2023-02-15T01:44:59;102629.34;;;28.83;22.20
77739;BME280;66904;59.926;30.404;2023-02-15T02:01:00;102618.91;;;28.87;22.31
77739;BME280;66904;59.926;30.404;2023-02-15T02:06:03;102595.78;;;28.83;22.23
77739;BME280;66904;59.926;30.404;2023-02-15T02:49:41;102599.34;;;28.83;21.95
77739;BME280;66904;59.926;30.404;2023-02-15T02:55:05;102598.41;;;28.91;22.15
77739;BME280;66904;59.926;30.404;2023-02-15T03:12:02;102593.69;;;28.85;22.16
77739;BME280;66904;59.926;30.404;2023-02-15T03:23:06;102593.31;;;28.88;22.05
77739;BME280;66904;59.926;30.404;2023-02-15T03:28:42;102587.03;;;28.87;21.69
77739;BME280;66904;59.926;30.404;2023-02-15T03:33:53;102584.69;;;28.84;21.60
77739;BME280;66904;59.926;30.404;2023-02-15T03:44:58;102586.13;;;28.80;21.92
77739;BME280;66904;59.926;30.404;2023-02-15T03:50:06;102588.63;;;28.82;21.53
77739;BME280;66904;59.926;30.404;2023-02-15T03:55:29;102585.06;;;28.81;21.71
77739;BME280;66904;59.926;30.404;2023-02-15T04:00:34;102581.31;;;28.82;21.80
77739;BME280;66904;59.926;30.404;2023-02-15T04:05:54;102572.84;;;28.77;21.66
77739;BME280;66904;59.926;30.404;2023-02-15T04:10:55;102582.16;;;28.83;21.89
77739;BME280;66904;59.926;30.404;2023-02-15T04:15:56;102583.00;;;28.83;21.87
77739;BME280;66904;59.926;30.404;2023-02-15T04:21:03;102583.81;;;28.84;21.99
77739;BME280;66904;59.926;30.404;2023-02-15T04:26:22;102589.88;;;28.79;21.74
77739;BME280;66904;59.926;30.404;2023-02-15T04:31:23;102589.38;;;28.76;21.98
77739;BME280;66904;59.926;30.404;2023-02-15T04:36:23;102587.91;;;28.73;21.79
77739;BME280;66904;59.926;30.404;2023-02-15T04:41:24;102581.41;;;28.74;22.34
77739;BME280;66904;59.926;30.404;2023-02-15T04:46:25;102590.41;;;28.74;22.25
77739;BME280;66904;59.926;30.404;2023-02-15T04:51:25;102590.63;;;28.73;21.92
77739;BME280;66904;59.926;30.404;2023-02-15T04:57:03;102597.84;;;28.81;21.72
77739;BME280;66904;59.926;30.404;2023-02-15T05:02:18;102597.56;;;28.76;22.06
77739;BME280;66904;59.926;30.404;2023-02-15T05:07:22;102596.44;;;28.85;22.16
77739;BME280;66904;59.926;30.404;2023-02-15T05:12:22;102594.91;;;28.67;21.49
77739;BME280;66904;59.926;30.404;2023-02-15T05:17:23;102598.56;;;28.60;21.45
77739;BME280;66904;59.926;30.404;2023-02-15T05:22:23;102589.25;;;28.54;21.87
77739;BME280;66904;59.926;30.404;2023-02-15T05:27:24;102605.31;;;28.49;21.40
77739;BME280;66904;59.926;30.404;2023-02-15T05:32:42;102592.97;;;28.39;21.78
77739;BME280;66904;59.926;30.404;2023-02-15T05:37:43;102590.25;;;28.39;21.35
77739;BME280;66904;59.926;30.404;2023-02-15T05:42:59;102597.41;;;28.40;22.16
77739;BME280;66904;59.926;30.404;2023-02-15T05:54:07;102594.00;;;28.38;21.64
77739;BME280;66904;59.926;30.404;2023-02-15T05:59:11;102587.91;;;28.36;22.20
77739;BME280;66904;59.926;30.404;2023-02-15T06:04:12;102588.38;;;28.39;22.02
77739;BME280;66904;59.926;30.404;2023-02-15T06:09:14;102593.84;;;28.39;22.11
77739;BME280;66904;59.926;30.404;2023-02-15T06:14:14;102588.38;;;28.39;21.89
77739;BME280;66904;59.926;30.404;2023-02-15T06:19:15;102584.34;;;28.35;21.80
77739;BME280;66904;59.926;30.404;2023-02-15T06:24:21;102586.78;;;28.30;21.79
77739;BME280;66904;59.926;30.404;2023-02-15T06:29:46;102591.06;;;28.24;21.57
77739;BME280;66904;59.926;30.404;2023-02-15T06:34:49;102587.59;;;28.16;21.63
77739;BME280;66904;59.926;30.404;2023-02-15T06:39:50;102598.00;;;28.12;21.75
77739;BME280;66904;59.926;30.404;2023-02-15T06:44:50;102599.59;;;28.07;21.39
77739;BME280;66904;59.926;30.404;2023-02-15T06:49:51;102595.28;;;28.04;21.74
77739;BME280;66904;59.926;30.404;2023-02-15T06:54:51;102604.88;;;28.00;21.61
77739;BME280;66904;59.926;30.404;2023-02-15T06:59:52;102599.81;;;27.97;21.12
77739;BME280;66904;59.926;30.404;2023-02-15T07:04:53;102605.78;;;27.93;21.00
77739;BME280;66904;59.926;30.404;2023-02-15T07:10:14;102598.28;;;27.95;21.39
77739;BME280;66904;59.926;30.404;2023-02-15T07:15:27;102601.72;;;27.89;21.29
77739;BME280;66904;59.926;30.404;2023-02-15T07:21:07;102604.44;;;27.89;21.04
77739;BME280;66904;59.926;30.404;2023-02-15T07:26:08;102609.97;;;27.81;21.35
77739;BME280;66904;59.926;30.404;2023-02-15T07:31:09;102595.03;;;27.77;21.51
77739;BME280;66904;59.926;30.404;2023-02-15T07:36:09;102609.59;;;27.84;21.45
77739;BME280;66904;59.926;30.404;2023-02-15T07:41:15;102612.31;;;27.84;20.87
77739;BME280;66904;59.926;30.404;2023-02-15T07:46:16;102620.47;;;27.84;21.37
77739;BME280;66904;59.926;30.404;2023-02-15T07:51:17;102618.41;;;27.86;21.18
77739;BME280;66904;59.926;30.404;2023-02-15T07:56:17;102616.91;;;27.83;21.22
77739;BME280;66904;59.926;30.404;2023-02-15T08:01:33;102616.34;;;27.88;21.11
77739;BME280;66904;59.926;30.404;2023-02-15T08:06:35;102629.47;;;27.84;21.26
77739;BME280;66904;59.926;30.404;2023-02-15T08:11:37;102624.72;;;27.86;20.83
77739;BME280;66904;59.926;30.404;2023-02-15T08:16:40;102626.03;;;27.90;20.92
77739;BME280;66904;59.926;30.404;2023-02-15T08:21:43;102630.06;;;27.94;21.00
77739;BME280;66904;59.926;30.404;2023-02-15T08:26:45;102626.81;;;27.99;21.15
77739;BME280;66904;59.926;30.404;2023-02-15T08:31:47;102620.00;;;28.03;20.95
77739;BME280;66904;59.926;30.404;2023-02-15T08:36:47;102625.22;;;28.04;20.65
77739;BME280;66904;59.926;30.404;2023-02-15T08:41:48;102630.34;;;28.07;21.03
77739;BME280;66904;59.926;30.404;2023-02-15T08:46:49;102625.94;;;28.06;21.07
77739;BME280;66904;59.926;30.404;2023-02-15T08:51:52;102626.94;;;28.05;20.85
77739;BME280;66904;59.926;30.404;2023-02-15T08:56:53;102628.16;;;28.03;20.85
77739;BME280;66904;59.926;30.404;2023-02-15T09:01:56;102623.06;;;28.00;20.76
77739;BME280;66904;59.926;30.404;2023-02-15T09:06:57;102622.03;;;28.01;20.89
77739;BME280;66904;59.926;30.404;2023-02-15T09:11:58;102619.50;;;27.99;21.12
77739;BME280;66904;59.926;30.404;2023-02-15T09:16:58;102615.56;;;28.02;20.79
77739;BME280;66904;59.926;30.404;2023-02-15T09:21:59;102602.81;;;28.02;21.38
77739;BME280;66904;59.926;30.404;2023-02-15T09:27:00;102602.44;;;28.05;21.72
77739;BME280;66904;59.926;30.404;2023-02-15T09:32:00;102602.44;;;28.05;21.59
77739;BME280;66904;59.926;30.404;2023-02-15T09:37:01;102601.09;;;28.01;21.18
77739;BME280;66904;59.926;30.404;2023-02-15T09:42:40;102597.50;;;28.09;21.37
77739;BME280;66904;59.926;30.404;2023-02-15T10:04:03;102607.75;;;27.99;21.35
77739;BME280;66904;59.926;30.404;2023-02-15T10:14:29;102609.84;;;27.97;21.98
77739;BME280;66904;59.926;30.404;2023-02-15T10:25:42;102602.16;;;28.00;21.39
77739;BME280;66904;59.926;30.404;2023-02-15T10:30:51;102595.06;;;27.91;21.32
77739;BME280;66904;59.926;30.404;2023-02-15T10:41:52;102594.78;;;27.86;21.15
77739;BME280;66904;59.926;30.404;2023-02-15T10:53:08;102577.34;;;27.95;21.24
77739;BME280;66904;59.926;30.404;2023-02-15T11:03:54;102582.44;;;27.98;21.06
77739;BME280;66904;59.926;30.404;2023-02-15T11:09:13;102575.97;;;27.99;21.22
77739;BME280;66904;59.926;30.404;2023-02-15T11:25:19;102569.19;;;28.18;21.38
77739;BME280;66904;59.926;30.404;2023-02-15T11:30:26;102571.44;;;28.14;21.24
77739;BME280;66904;59.926;30.404;2023-02-15T11:35:32;102572.47;;;28.13;21.49
77739;BME280;66904;59.926;30.404;2023-02-15T11:40:51;102566.66;;;28.16;21.15
77739;BME280;66904;59.926;30.404;2023-02-15T11:45:53;102567.22;;;28.12;21.07
77739;BME280;66904;59.926;30.404;2023-02-15T11:50:54;102557.34;;;28.11;20.93
77739;BME280;66904;59.926;30.404;2023-02-15T11:55:55;102550.88;;;28.12;21.08
77739;BME280;66904;59.926;30.404;2023-02-15T12:01:03;102542.56;;;28.05;20.78
77739;BME280;66904;59.926;30.404;2023-02-15T12:06:32;102562.06;;;28.17;20.81
77739;BME280;66904;59.926;30.404;2023-02-15T12:11:39;102559.53;;;28.15;21.29
77739;BME280;66904;59.926;30.404;2023-02-15T12:16:42;102557.44;;;28.17;21.57
77739;BME280;66904;59.926;30.404;2023-02-15T12:21:43;102552.47;;;28.21;21.45
77739;BME280;66904;59.926;30.404;2023-02-15T12:27:02;102546.13;;;28.29;21.30
77739;BME280;66904;59.926;30.404;2023-02-15T12:32:04;102554.66;;;28.26;21.59
77739;BME280;66904;59.926;30.404;2023-02-15T12:37:17;102549.50;;;28.31;21.32
77739;BME280;66904;59.926;30.404;2023-02-15T12:42:19;102552.78;;;28.26;21.58
77739;BME280;66904;59.926;30.404;2023-02-15T12:47:20;102546.88;;;28.22;21.25
77739;BME280;66904;59.926;30.404;2023-02-15T12:52:25;102561.31;;;28.23;21.26
77739;BME280;66904;59.926;30.404;2023-02-15T12:57:29;102569.28;;;28.24;21.46
77739;BME280;66904;59.926;30.404;2023-02-15T13:02:54;102571.75;;;28.34;21.34
77739;BME280;66904;59.926;30.404;2023-02-15T13:08:00;102573.16;;;28.30;21.53
77739;BME280;66904;59.926;30.404;2023-02-15T13:13:01;102574.47;;;28.34;20.94
77739;BME280;66904;59.926;30.404;2023-02-15T13:18:04;102580.41;;;28.38;21.20
77739;BME280;66904;59.926;30.404;2023-02-15T13:23:13;102566.41;;;28.41;21.30
77739;BME280;66904;59.926;30.404;2023-02-15T13:28:19;102571.84;;;28.41;21.03
77739;BME280;66904;59.926;30.404;2023-02-15T13:33:44;102570.28;;;28.46;20.87
77739;BME280;66904;59.926;30.404;2023-02-15T13:44:15;102564.72;;;28.40;21.31
77739;BME280;66904;59.926;30.404;2023-02-15T13:49:43;102573.00;;;28.46;20.98
77739;BME280;66904;59.926;30.404;2023-02-15T13:55:03;102573.75;;;28.40;21.09
77739;BME280;66904;59.926;30.404;2023-02-15T14:21:39;102570.00;;;28.56;21.18
77739;BME280;66904;59.926;30.404;2023-02-15T14:26:47;102566.59;;;28.54;20.80
77739;BME280;66904;59.926;30.404;2023-02-15T14:31:54;102561.63;;;28.57;21.26
77739;BME280;66904;59.926;30.404;2023-02-15T14:36:56;102563.31;;;28.58;21.15
77739;BME280;66904;59.926;30.404;2023-02-15T14:42:18;102561.25;;;28.60;21.12
77739;BME280;66904;59.926;30.404;2023-02-15T14:47:44;102564.78;;;28.69;21.08
77739;BME280;66904;59.926;30.404;2023-02-15T14:53:51;102563.75;;;28.70;20.78
77739;BME280;66904;59.926;30.404;2023-02-15T14:58:27;102559.97;;;28.56;21.37
77739;BME280;66904;59.926;30.404;2023-02-15T15:03:27;102571.13;;;28.61;21.29
77739;BME280;66904;59.926;30.404;2023-02-15T15:08:33;102571.13;;;28.61;21.28
77739;BME280;66904;59.926;30.404;2023-02-15T15:13:35;102569.75;;;28.80;21.13
77739;BME280;66904;59.926;30.404;2023-02-15T15:18:47;102573.13;;;28.67;21.16
77739;BME280;66904;59.926;30.404;2023-02-15T15:23:48;102567.75;;;28.59;21.09
77739;BME280;66904;59.926;30.404;2023-02-15T15:49:31;102560.03;;;28.48;21.15
77739;BME280;66904;59.926;30.404;2023-02-15T15:54:32;102557.50;;;28.47;21.59
77739;BME280;66904;59.926;30.404;2023-02-15T15:59:33;102562.28;;;28.45;21.82
77739;BME280;66904;59.926;30.404;2023-02-15T16:04:34;102560.63;;;28.44;21.99
77739;BME280;66904;59.926;30.404;2023-02-15T16:09:35;102556.34;;;28.41;22.02
77739;BME280;66904;59.926;30.404;2023-02-15T16:14:38;102560.47;;;28.37;21.94
77739;BME280;66904;59.926;30.404;2023-02-15T16:19:41;102557.09;;;28.35;22.74
77739;BME280;66904;59.926;30.404;2023-02-15T16:29:42;102559.19;;;28.33;22.49
77739;BME280;66904;59.926;30.404;2023-02-15T16:35:00;102567.25;;;28.41;22.80
77739;BME280;66904;59.926;30.404;2023-02-15T16:40:02;102551.88;;;28.34;22.91
77739;BME280;66904;59.926;30.404;2023-02-15T16:50:04;102553.06;;;28.31;23.50
77739;BME280;66904;59.926;30.404;2023-02-15T16:55:05;102545.09;;;28.30;22.86
77739;BME280;66904;59.926;30.404;2023-02-15T17:00:16;102540.19;;;28.25;23.22
77739;BME280;66904;59.926;30.404;2023-02-15T17:05:18;102546.00;;;28.22;22.70
77739;BME280;66904;59.926;30.404;2023-02-15T17:10:32;102550.44;;;28.23;23.46
77739;BME280;66904;59.926;30.404;2023-02-15T17:20:41;102539.44;;;28.16;23.96
77739;BME280;66904;59.926;30.404;2023-02-15T17:25:43;102541.69;;;28.13;24.12
77739;BME280;66904;59.926;30.404;2023-02-15T17:30:43;102550.88;;;28.12;24.13
77739;BME280;66904;59.926;30.404;2023-02-15T17:36:09;102552.84;;;28.18;25.18
77739;BME280;66904;59.926;30.404;2023-02-15T17:41:10;102551.53;;;28.14;24.71
77739;BME280;66904;59.926;30.404;2023-02-15T17:46:11;102548.47;;;28.17;24.31
77739;BME280;66904;59.926;30.404;2023-02-15T17:51:13;102547.25;;;28.19;24.88
77739;BME280;66904;59.926;30.404;2023-02-15T17:56:14;102546.00;;;28.22;24.43
77739;BME280;66904;59.926;30.404;2023-02-15T18:01:17;102543.94;;;28.24;24.59
77739;BME280;66904;59.926;30.404;2023-02-15T18:06:39;102537.47;;;28.25;24.32
77739;BME280;66904;59.926;30.404;2023-02-15T18:11:59;102537.78;;;28.30;24.51
77739;BME280;66904;59.926;30.404;2023-02-15T18:17:10;102529.81;;;28.43;24.44
77739;BME280;66904;59.926;30.404;2023-02-15T18:22:16;102527.81;;;28.52;24.36
77739;BME280;66904;59.926;30.404;2023-02-15T18:27:17;102528.38;;;28.62;24.06
77739;BME280;66904;59.926;30.404;2023-02-15T18:32:34;102525.72;;;28.77;24.73
77739;BME280;66904;59.926;30.404;2023-02-15T18:37:47;102523.06;;;28.83;23.94
77739;BME280;66904;59.926;30.404;2023-02-15T18:42:52;102530.56;;;28.81;24.09
77739;BME280;66904;59.926;30.404;2023-02-15T18:47:53;102520.06;;;28.78;23.68
77739;BME280;66904;59.926;30.404;2023-02-15T18:53:00;102521.91;;;28.92;24.33
77739;BME280;66904;59.926;30.404;2023-02-15T18:58:14;102516.31;;;29.15;23.67
77739;BME280;66904;59.926;30.404;2023-02-15T19:03:16;102512.34;;;29.32;24.01
77739;BME280;66904;59.926;30.404;2023-02-15T19:08:27;102519.03;;;29.51;23.76
77739;BME280;66904;59.926;30.404;2023-02-15T19:13:30;102509.69;;;29.60;23.95
77739;BME280;66904;59.926;30.404;2023-02-15T19:18:34;102515.28;;;29.73;23.77
77739;BME280;66904;59.926;30.404;2023-02-15T19:23:35;102509.13;;;29.86;23.73
77739;BME280;66904;59.926;30.404;2023-02-15T19:28:36;102503.09;;;29.97;23.81
77739;BME280;66904;59.926;30.404;2023-02-15T19:33:42;102498.53;;;30.04;23.61
77739;BME280;66904;59.926;30.404;2023-02-15T19:38:57;102501.78;;;30.14;22.81
77739;BME280;66904;59.926;30.404;2023-02-15T19:44:13;102497.19;;;29.93;22.78
77739;BME280;66904;59.926;30.404;2023-02-15T19:49:13;102494.50;;;29.72;22.24
77739;BME280;66904;59.926;30.404;2023-02-15T19:54:40;102490.53;;;29.53;21.58
77739;BME280;66904;59.926;30.404;2023-02-15T19:59:43;102471.84;;;29.14;22.45
77739;BME280;66904;59.926;30.404;2023-02-15T20:05:09;102469.88;;;29.23;22.87
77739;BME280;66904;59.926;30.404;2023-02-15T20:10:25;102469.56;;;29.33;23.45
77739;BME280;66904;59.926;30.404;2023-02-15T20:15:28;102464.25;;;29.46;23.40
77739;BME280;66904;59.926;30.404;2023-02-15T20:25:35;102455.38;;;29.65;23.99
77739;BME280;66904;59.926;30.404;2023-02-15T20:30:36;102452.31;;;29.74;24.02
77739;BME280;66904;59.926;30.404;2023-02-15T20:35:36;102462.50;;;29.87;24.09
77739;BME280;66904;59.926;30.404;2023-02-15T20:40:37;102467.44;;;29.98;24.04
77739;BME280;66904;59.926;30.404;2023-02-15T20:45:58;102470.81;;;30.00;23.42
77739;BME280;66904;59.926;30.404;2023-02-15T20:50:59;102456.94;;;29.74;23.72
77739;BME280;66904;59.926;30.404;2023-02-15T20:56:00;102464.41;;;29.65;24.48
77739;BME280;66904;59.926;30.404;2023-02-15T21:01:00;102459.81;;;29.66;24.83
77739;BME280;66904;59.926;30.404;2023-02-15T21:06:01;102450.56;;;29.67;24.92
77739;BME280;66904;59.926;30.404;2023-02-15T21:11:01;102452.06;;;29.69;24.94
77739;BME280;66904;59.926;30.404;2023-02-15T21:16:02;102465.75;;;29.97;24.61
77739;BME280;66904;59.926;30.404;2023-02-15T21:21:04;102470.53;;;29.89;23.85
77739;BME280;66904;59.926;30.404;2023-02-15T21:26:32;102460.72;;;29.73;23.13
77739;BME280;66904;59.926;30.404;2023-02-15T21:31:33;102443.28;;;29.46;23.75
77739;BME280;66904;59.926;30.404;2023-02-15T21:36:33;102456.06;;;29.46;23.49
77739;BME280;66904;59.926;30.404;2023-02-15T21:41:34;102448.44;;;29.41;23.26
77739;BME280;66904;59.926;30.404;2023-02-15T21:46:57;102451.56;;;29.38;23.41
77739;BME280;66904;59.926;30.404;2023-02-15T21:52:19;102451.34;;;29.33;23.32
77739;BME280;66904;59.926;30.404;2023-02-15T21:57:22;102450.66;;;29.31;23.57
77739;BME280;66904;59.926;30.404;2023-02-15T22:02:28;102451.69;;;29.30;23.68
77739;BME280;66904;59.926;30.404;2023-02-15T22:07:28;102441.00;;;29.29;23.64
77739;BME280;66904;59.926;30.404;2023-02-15T22:12:29;102436.41;;;29.29;23.27
77739;BME280;66904;59.926;30.404;2023-02-15T22:17:29;102433.47;;;29.31;23.29
77739;BME280;66904;59.926;30.404;2023-02-15T22:22:30;102432.44;;;29.32;23.56
77739;BME280;66904;59.926;30.404;2023-02-15T22:27:37;102431.56;;;29.31;23.57
77739;BME280;66904;59.926;30.404;2023-02-15T22:32:38;102428.84;;;29.31;23.62
77739;BME280;66904;59.926;30.404;2023-02-15T22:37:39;102416.63;;;29.27;23.83
77739;BME280;66904;59.926;30.404;2023-02-15T22:42:41;102415.81;;;29.27;23.83
77739;BME280;66904;59.926;30.404;2023-02-15T22:47:45;102420.66;;;29.31;24.09
77739;BME280;66904;59.926;30.404;2023-02-15T22:53:05;102413.78;;;29.35;23.87
77739;BME280;66904;59.926;30.404;2023-02-15T22:58:37;102412.69;;;29.30;24.03
77739;BME280;66904;59.926;30.404;2023-02-15T23:03:50;102404.72;;;29.28;23.51
77739;BME280;66904;59.926;30.404;2023-02-15T23:08:51;102400.09;;;29.29;23.55
77739;BME280;66904;59.926;30.404;2023-02-15T23:13:51;102399.47;;;29.27;23.68
77739;BME280;66904;59.926;30.404;2023-02-15T23:18:51;102403.84;;;29.28;23.41
77739;BME280;66904;59.926;30.404;2023-02-15T23:23:55;102396.91;;;29.25;23.80
77739;BME280;66904;59.926;30.404;2023-02-15T23:34:56;102384.97;;;29.26;23.60
77739;BME280;66904;59.926;30.404;2023-02-15T23:40:31;102386.91;;;29.32;23.14
77739;BME280;66904;59.926;30.404;2023-02-15T23:51:55;102375.09;;;29.25;23.12
77739;BME280;66904;59.926;30.404;2023-02-15T23:56:59;102375.09;;;29.25;23.52
